Rubin Power — 3FNG6 — position and weather

sailwx.info

Track history (hours):
 
Tides and Currents Weather Stations Pressure Air Temp Water Temp Dewpoint Dewpoint Depression Visibility Wind Speed Wind Dir Waves Ship Positions

Rubin Power

Last reported at 2016-Jun-08 11:04 UTC. Time now 2016-Jul-30 16:54 UTC.
Position S 29°23' E 032°00'.
Warning: this ship's position is 52 days out of date.

Length 218.7 m; beam 32.2 m.

Type: Cargo ship. MMSI: 356808000.

Date/timePositionNaut miles runAvg speedWind from/ knotsBaromVisibWave heightAir tempDewpointWater temp
2016-Jun-08 11:04S 29°23' E 032°00'6 8.4
2016-Jun-08 10:19S 29°28' E 031°55'6 8.4
2016-Jun-08 09:33S 29°33' E 031°51'9 8.8
2016-Jun-08 08:33S 29°40' E 031°45'9 8.3
2016-Jun-08 07:25S 29°46' E 031°37'7 8.1
2016-Jun-08 06:33S 29°51' E 031°32'9 8.7
2016-Jun-08 05:33S 29°58' E 031°25'9 8.7
2016-Jun-08 04:33S 30°04' E 031°19'8 8.4
2016-Jun-08 03:33S 30°11' E 031°12'8 8.3
2016-Jun-08 02:32S 30°17' E 031°05'8 8.1
2016-Jun-08 01:33S 30°23' E 030°59'12 8.4
2016-Jun-08 00:08S 30°32' E 030°50'  
Track history (hours):
 
Tides and Currents Weather Stations Pressure Air Temp Water Temp Dewpoint Dewpoint Depression Visibility Wind Speed Wind Dir Waves Ship Positions

Rubin Power

Last reported at 2016-Jun-08 11:04 UTC. Time now 2016-Jul-30 16:54 UTC.
Position S 29°23' E 032°00'.
Warning: this ship's position is 52 days out of date.

Length 218.7 m; beam 32.2 m.

Type: Cargo ship. MMSI: 356808000.

Date/timePositionNaut miles runAvg speedWind from/ knotsBaromVisibWave heightAir tempDewpointWater temp
2016-Jun-08 11:04S 29°23' E 032°00'6 8.4
2016-Jun-08 10:19S 29°28' E 031°55'6 8.4
2016-Jun-08 09:33S 29°33' E 031°51'9 8.8
2016-Jun-08 08:33S 29°40' E 031°45'9 8.3
2016-Jun-08 07:25S 29°46' E 031°37'7 8.1
2016-Jun-08 06:33S 29°51' E 031°32'9 8.7
2016-Jun-08 05:33S 29°58' E 031°25'9 8.7
2016-Jun-08 04:33S 30°04' E 031°19'8 8.4
2016-Jun-08 03:33S 30°11' E 031°12'8 8.3
2016-Jun-08 02:32S 30°17' E 031°05'8 8.1
2016-Jun-08 01:33S 30°23' E 030°59'12 8.4
2016-Jun-08 00:08S 30°32' E 030°50'  

Dump ship's entire track history